01:00
Airports
Links
Donate
Help keep this website running!
PayPal
Bitcoin
METAR
LFPG 230030Z 23004KT CAVOK 17/12 Q1016 NOSIG
Current Weather Conditions at LFPG
VFR 00:30:00 23-05-17
Altimeter:30.00 hg
Temp:17.0°c 63°f
Dew point:12.0°c 54°f
Wind:4 knots, 4.6 mph, 2 m/s, from 230°
Visibility:6.21 statute miles
(CAVOK)
No significant weather changes expected within 2 hours.
Past METAR reports
VFR 00:00:00 23-05-17
Altimeter:30.00 hg
Temp:17.0°c 63°f
Dew point:12.0°c 54°f
Wind:2 knots, 2.3 mph, 1 m/s,
Variable direction
Visibility:6.21 statute miles
(CAVOK)
No significant weather changes expected within 2 hours.
LFPG 230000Z VRB02KT CAVOK 17/12 Q1016 NOSIG
VFR 23:30:00 22-05-17
Altimeter:30.03 hg
Temp:18.0°c 64°f
Dew point:12.0°c 54°f
Wind:2 knots, 2.3 mph, 1 m/s,
Variable direction
Visibility:6.21 statute miles
(CAVOK)
No significant weather changes expected within 2 hours.
LFPG 222330Z VRB02KT CAVOK 18/12 Q1017 NOSIG
VFR 23:00:00 22-05-17
Altimeter:30.03 hg
Temp:18.0°c 64°f
Dew point:12.0°c 54°f
Wind:1 knots, 1.2 mph, 1 m/s, from 260°
Visibility:6.21 statute miles
(CAVOK)
No significant weather changes expected within 2 hours.
LFPG 222300Z 26001KT CAVOK 18/12 Q1017 NOSIG
VFR 22:30:00 22-05-17
Altimeter:30.03 hg
Temp:19.0°c 66°f
Dew point:12.0°c 54°f
Wind:1 knots, 1.2 mph, 1 m/s, from 10°
Visibility:6.21 statute miles
(CAVOK)
No significant weather changes expected within 2 hours.
LFPG 222230Z 01001KT CAVOK 19/12 Q1017 NOSIG
VFR 22:00:00 22-05-17
Altimeter:30.00 hg
Temp:19.0°c 66°f
Dew point:12.0°c 54°f
Wind:2 knots, 2.3 mph, 1 m/s, from 50°
Visibility:6.21 statute miles
(CAVOK)
No significant weather changes expected within 2 hours.
LFPG 222200Z 05002KT CAVOK 19/12 Q1016 NOSIG
VFR 21:30:00 22-05-17
Altimeter:30.00 hg
Temp:20.0°c 68°f
Dew point:13.0°c 55°f
Wind:2 knots, 2.3 mph, 1 m/s, from 20°
Visibility:6.21 statute miles
(CAVOK)
No significant weather changes expected within 2 hours.
LFPG 222130Z 02002KT CAVOK 20/13 Q1016 NOSIG
TAF
TAF LFPG 222300Z 2300/2406 24003KT CAVOK PROB30 TEMPO 2306/2308 BKN006 TX24/2315Z TN13/2405Z
Forecast at LFPG
00:00 23-05-17 to 06:00 24-05-17
NSW
Wind:3 Knots from 240°
Visibility:6.21 statute miles
NSC
TEMPO 06:00 23-05-17 to 08:00 23-05-17
30%
600BKN Broken